Time;durP1;ratioP1;P1;durP2;ratioP2;P2;SDS_P1;SDS_P2;PMS_P1;PMS_P2;Temp;Humidity;BMP_temperature;BMP_pressure;BME280_temperature;BME280_humidity;BME280_pressure;Samples;Min_cycle;Max_cycle;Signal;HPM_P1;HPM_P2
2021/12/05 00:19:36;;;;;;;61.13;18.30;;;4.10;99.90;;;;;;5015217;28;20060;-70
2021/12/05 00:24:46;;;;;;;61.60;18.45;;;;;;;;;;5014808;28;20457;-70
2021/12/05 00:27:19;;;;;;;58.70;17.13;;;;;;;;;;5015105;28;20050;-70
2021/12/05 00:32:27;;;;;;;61.17;17.23;;;;;;;;;;5014847;28;20116;-71
2021/12/05 00:40:47;;;;;;;58.92;17.23;;;4.40;99.90;;;;;;5013550;28;20414;-70
2021/12/05 00:56:48;;;;;;;53.75;15.88;;;;;;;;;;5013358;28;20053;-70
2021/12/05 01:04:32;;;;;;;47.38;15.50;;;;;;;;;;5014348;28;20046;-69
2021/12/05 01:09:50;;;;;;;48.63;15.15;;;;;;;;;;5013107;28;20548;-69
2021/12/05 01:17:37;;;;;;;48.58;14.77;;;4.30;99.90;;;;;;5013717;28;20498;-69
2021/12/05 01:20:09;;;;;;;46.80;14.30;;;4.80;99.90;;;;;;5013878;28;20058;-71
2021/12/05 01:22:40;;;;;;;48.88;14.85;;;;;;;;;;5013961;28;20042;-69
2021/12/05 01:28:08;;;;;;;48.17;14.25;;;;;;;;;;5012806;28;20061;-71
2021/12/05 01:33:22;;;;;;;46.83;13.93;;;;;;;;;;5013660;28;20136;-72
2021/12/05 01:41:48;;;;;;;33.00;11.32;;;;;;;;;;5012645;28;20133;-71
2021/12/05 01:47:17;;;;;;;36.47;10.73;;;;;;;;;;5013544;28;20056;-70
2021/12/05 01:50:08;;;;;;;24.58;10.23;;;;;;;;;;5012826;28;20057;-70
2021/12/05 02:08:54;;;;;;;26.70;9.57;;;;;;;;;;5013391;28;20137;-71
2021/12/05 02:33:30;;;;;;;26.15;8.85;;;;;;;;;;5012714;28;20504;-70
2021/12/05 02:36:23;;;;;;;24.35;9.20;;;;;;;;;;5011982;28;20088;-71
2021/12/05 02:41:29;;;;;;;21.02;8.82;;;;;;;;;;5012994;28;20053;-71
2021/12/05 02:44:00;;;;;;;22.98;8.63;;;;;;;;;;5012930;28;20049;-70
2021/12/05 02:46:27;;;;;;;24.02;9.48;;;;;;;;;;5012641;28;20160;-71
2021/12/05 02:49:03;;;;;;;23.63;8.70;;;;;;;;;;5012588;28;20467;-71
2021/12/05 02:51:29;;;;;;;23.88;9.40;;;;;;;;;;5012778;28;20483;-71
2021/12/05 02:54:09;;;;;;;27.90;9.25;;;;;;;;;;5011637;28;20050;-70
2021/12/05 02:56:41;;;;;;;23.13;9.85;;;;;;;;;;5011830;28;20093;-70
2021/12/05 03:01:58;;;;;;;22.80;9.75;;;4.10;99.90;;;;;;5012485;28;20065;-70
2021/12/05 03:04:28;;;;;;;25.20;10.07;;;;;;;;;;5011692;28;20085;-70
2021/12/05 03:06:55;;;;;;;23.83;9.80;;;;;;;;;;5012414;28;20400;-71
2021/12/05 03:09:22;;;;;;;26.13;10.38;;;;;;;;;;5012688;28;20046;-70
2021/12/05 03:11:48;;;;;;;;;;;4.00;99.90;;;;;;5011979;28;20050;-70
2021/12/05 03:14:14;;;;;;;24.52;11.02;;;;;;;;;;5012193;28;20369;-73
2021/12/05 03:16:41;;;;;;;34.53;11.73;;;;;;;;;;5012343;28;20132;-70
2021/12/05 03:19:07;;;;;;;;;;;;;;;;;;5012990;28;20442;-70
2021/12/05 03:21:34;;;;;;;28.15;11.05;;;;;;;;;;5011515;28;19925;-70
2021/12/05 03:24:01;;;;;;;37.63;12.23;;;;;;;;;;5012523;28;20414;-70
2021/12/05 03:26:31;;;;;;;33.63;12.23;;;4.40;99.90;;;;;;5010992;28;20054;-71
2021/12/05 03:28:57;;;;;;;31.27;11.40;;;;;;;;;;5012405;28;20053;-71
2021/12/05 03:31:29;;;;;;;27.35;11.82;;;4.30;99.90;;;;;;5011096;28;20121;-71
2021/12/05 03:33:55;;;;;;;29.60;12.43;;;;;;;;;;5011196;28;20046;-72
2021/12/05 03:36:22;;;;;;;29.42;11.93;;;;;;;;;;5012396;28;20053;-71
2021/12/05 03:38:48;;;;;;;25.45;11.15;;;;;;;;;;5011257;28;20116;-70
2021/12/05 03:41:15;;;;;;;34.30;12.88;;;;;;;;;;5012627;28;20486;-70
2021/12/05 03:43:42;;;;;;;33.47;11.93;;;;;;;;;;5014580;28;20057;-71
2021/12/05 03:46:08;;;;;;;27.50;12.27;;;;;;;;;;5014497;28;20057;-70
2021/12/05 03:48:37;;;;;;;;;;;;;;;;;;4998816;28;20108;-70
2021/12/05 03:51:03;;;;;;;26.08;11.05;;;;;;;;;;5014493;28;20024;-70
2021/12/05 03:53:29;;;;;;;24.52;11.98;;;;;;;;;;5014635;28;20104;-70
2021/12/05 03:55:57;;;;;;;37.97;12.50;;;;;;;;;;5014616;28;20057;-71
2021/12/05 03:58:24;;;;;;;30.23;11.95;;;;;;;;;;5015469;28;20046;-70
2021/12/05 04:00:49;;;;;;;;;;;;;;;;;;5014805;28;20057;-71
2021/12/05 04:03:16;;;;;;;33.22;12.50;;;;;;;;;;5015495;28;20313;-71
2021/12/05 04:05:43;;;;;;;32.92;13.30;;;;;;;;;;5015437;28;20106;-71
2021/12/05 04:08:10;;;;;;;25.80;12.60;;;;;;;;;;5014414;28;20054;-71
2021/12/05 04:10:38;;;;;;;30.58;12.85;;;;;;;;;;5015386;28;20096;-71
2021/12/05 04:13:04;;;;;;;27.77;12.90;;;;;;;;;;5015313;28;20054;-71
2021/12/05 04:15:30;;;;;;;;;;;;;;;;;;5015608;28;20050;-73
2021/12/05 04:17:56;;;;;;;31.15;13.07;;;;;;;;;;5015270;28;19921;-72
2021/12/05 04:20:24;;;;;;;35.35;13.38;;;;;;;;;;5016393;28;20450;-72
2021/12/05 04:22:50;;;;;;;31.13;13.00;;;;;;;;;;5017003;28;20042;-71
2021/12/05 04:25:17;;;;;;;31.08;12.80;;;;;;;;;;5016217;28;20100;-72
2021/12/05 04:27:45;;;;;;;36.13;13.20;;;4.00;99.90;;;;;;5015914;28;20406;-71
2021/12/05 04:30:14;;;;;;;32.47;12.85;;;;;;;;;;5015039;28;20050;-71
2021/12/05 04:32:40;;;;;;;29.77;12.80;;;;;;;;;;5015458;28;20049;-70
2021/12/05 04:35:06;;;;;;;30.83;13.82;;;;;;;;;;5013547;28;20046;-72
2021/12/05 04:37:32;;;;;;;28.75;13.27;;;;;;;;;;5013896;28;20391;-72
2021/12/05 04:39:58;;;;;;;30.60;13.85;;;;;;;;;;5013552;28;20046;-71
2021/12/05 04:42:25;;;;;;;33.88;14.43;;;;;;;;;;5013421;28;20050;-72
2021/12/05 04:44:51;;;;;;;44.75;13.98;;;;;;;;;;5014813;28;20133;-75
2021/12/05 04:47:17;;;;;;;33.75;13.30;;;;;;;;;;5014432;28;20548;-70
2021/12/05 04:49:43;;;;;;;42.13;14.00;;;;;;;;;;5015488;28;20050;-73
2021/12/05 04:52:09;;;;;;;;;;;4.10;99.90;;;;;;5014599;28;20379;-70
2021/12/05 04:54:36;;;;;;;36.92;14.70;;;;;;;;;;5014220;28;20383;-72
2021/12/05 04:57:02;;;;;;;;;;;4.10;99.90;;;;;;5014756;28;20076;-71
2021/12/05 04:59:32;;;;;;;34.70;14.75;;;;;;;;;;5013905;28;20272;-71
2021/12/05 05:01:58;;;;;;;36.88;15.13;;;;;;;;;;5014811;28;20057;-72
2021/12/05 05:04:29;;;;;;;;;;;4.00;99.90;;;;;;5014556;28;20501;-70
2021/12/05 05:07:04;;;;;;;38.10;15.57;;;;;;;;;;5013398;28;20281;-71
2021/12/05 05:09:30;;;;;;;44.67;16.75;;;;;;;;;;5013185;28;20053;-71
2021/12/05 05:11:57;;;;;;;41.20;16.20;;;;;;;;;;4980513;28;20057;-73
2021/12/05 05:14:23;;;;;;;;;;;;;;;;;;5014514;28;20050;-72
2021/12/05 05:16:53;;;;;;;41.40;18.35;;;;;;;;;;5014049;28;19958;-70
2021/12/05 05:19:23;;;;;;;48.60;17.70;;;;;;;;;;5013122;28;20455;-71
2021/12/05 05:22:20;;;;;;;37.88;16.98;;;3.90;99.90;;;;;;5012672;28;20112;-71
2021/12/05 05:25:15;;;;;;;48.47;18.33;;;;;;;;;;5011374;28;20586;-71
2021/12/05 05:46:16;;;;;;;46.15;21.05;;;;;;;;;;5013270;28;20482;-71
2021/12/05 05:49:50;;;;;;;54.83;20.35;;;;;;;;;;5013726;28;20180;-70
2021/12/05 05:51:38;;;;;;;55.70;21.35;;;;;;;;;;5013429;28;20136;-71
2021/12/05 05:54:04;;;;;;;45.70;20.83;;;;;;;;;;5013992;28;20080;-70
2021/12/05 05:56:32;;;;;;;58.40;21.83;;;;;;;;;;5012821;28;20050;-71
2021/12/05 05:59:16;;;;;;;54.35;21.08;;;;;;;;;;5012653;28;20058;-70
2021/12/05 06:04:14;;;;;;;51.22;21.35;;;;;;;;;;5012536;28;20046;-71
2021/12/05 06:06:40;;;;;;;53.25;22.40;;;;;;;;;;5013329;28;20053;-71
2021/12/05 06:09:08;;;;;;;54.45;22.88;;;;;;;;;;5012928;28;20204;-73
2021/12/05 06:11:34;;;;;;;56.40;22.67;;;;;;;;;;5011944;28;20497;-70
2021/12/05 06:14:00;;;;;;;59.53;22.95;;;;;;;;;;5013135;28;20045;-70
2021/12/05 06:16:26;;;;;;;55.20;22.13;;;3.90;99.90;;;;;;5013126;28;20045;-71
2021/12/05 06:18:52;;;;;;;54.45;21.25;;;;;;;;;;5013158;28;20115;-70
2021/12/05 06:21:18;;;;;;;49.35;20.75;;;;;;;;;;5013105;28;20046;-71
2021/12/05 06:23:45;;;;;;;51.63;21.23;;;;;;;;;;4995511;28;20053;-70
2021/12/05 06:26:14;;;;;;;48.53;20.77;;;3.70;99.90;;;;;;5011584;28;20101;-70
2021/12/05 06:28:43;;;;;;;42.97;19.75;;;;;;;;;;5011826;28;20060;-70
2021/12/05 06:31:21;;;;;;;46.80;20.60;;;;;;;;;;5012999;28;20054;-70
2021/12/05 06:42:08;;;;;;;46.85;19.60;;;;;;;;;;5012956;28;20061;-71
2021/12/05 06:47:24;;;;;;;48.45;19.40;;;4.10;99.90;;;;;;5012906;28;20418;-70
2021/12/05 06:49:50;;;;;;;44.58;20.02;;;;;;;;;;5012250;28;20042;-70
2021/12/05 06:52:16;;;;;;;;;;;3.80;99.90;;;;;;5012533;28;20045;-69
2021/12/05 06:54:42;;;;;;;38.50;18.75;;;;;;;;;;5011707;28;20421;-70
2021/12/05 06:57:08;;;;;;;43.42;18.17;;;;;;;;;;5013073;28;20061;-71
2021/12/05 06:59:37;;;;;;;52.78;18.60;;;;;;;;;;5013135;28;20068;-70
2021/12/05 07:02:03;;;;;;;48.40;18.45;;;;;;;;;;5012695;28;20072;-71
2021/12/05 07:07:26;;;;;;;44.85;18.45;;;;;;;;;;5012469;28;20100;-71
2021/12/05 07:09:53;;;;;;;44.33;18.42;;;;;;;;;;5012686;28;20054;-72
2021/12/05 07:15:11;;;;;;;39.40;18.42;;;;;;;;;;5012622;28;20482;-70
2021/12/05 07:22:54;;;;;;;42.95;18.70;;;;;;;;;;5015949;28;20069;-72
2021/12/05 07:25:35;;;;;;;;;;;4.00;99.90;;;;;;4999121;28;20067;-70
2021/12/05 07:41:51;;;;;;;46.40;19.33;;;;;;;;;;5015938;28;20116;-70
2021/12/05 07:44:18;;;;;;;45.17;18.33;;;;;;;;;;5015955;28;20046;-70
2021/12/05 07:46:45;;;;;;;53.22;19.52;;;;;;;;;;5015769;28;20053;-70
2021/12/05 07:49:13;;;;;;;40.47;17.48;;;;;;;;;;5015726;28;20049;-70
2021/12/05 07:51:43;;;;;;;39.63;17.42;;;;;;;;;;5015570;28;20049;-70
2021/12/05 08:00:28;;;;;;;44.83;17.48;;;;;;;;;;4993802;28;20478;-71
2021/12/05 08:16:19;;;;;;;37.95;14.55;;;;;;;;;;4994193;28;20542;-70
2021/12/05 08:18:46;;;;;;;33.75;13.93;;;;;;;;;;4992846;28;20057;-70
2021/12/05 08:21:12;;;;;;;39.75;15.07;;;;;;;;;;4991631;28;20161;-70
2021/12/05 08:23:38;;;;;;;;;;;;;;;;;;4994713;28;20046;-72
2021/12/05 08:26:12;;;;;;;37.67;15.48;;;;;;;;;;4992318;28;19968;-70
2021/12/05 08:31:44;;;;;;;29.08;13.23;;;;;;;;;;4992750;28;20061;-73
2021/12/05 08:37:09;;;;;;;35.13;12.85;;;;;;;;;;4992666;28;20050;-71
2021/12/05 10:07:00;;;;;;;30.08;12.77;;;;;;;;;;4993341;28;20453;-66
2021/12/05 10:14:24;;;;;;;27.80;13.13;;;;;;;;;;4993075;28;20057;-71
2021/12/05 10:20:05;;;;;;;35.95;14.40;;;4.60;99.90;;;;;;4993344;28;20050;-69
2021/12/05 10:33:51;;;;;;;31.45;14.50;;;;;;;;;;4993087;28;20051;-68
2021/12/05 10:36:25;;;;;;;25.37;14.37;;;4.80;99.90;;;;;;4993172;28;20054;-67
2021/12/05 10:38:54;;;;;;;28.33;13.90;;;;;;;;;;4993125;28;20125;-69
2021/12/05 10:44:01;;;;;;;28.05;14.73;;;;;;;;;;4993037;28;20246;-67
2021/12/05 10:46:29;;;;;;;38.03;14.88;;;;;;;;;;4991477;28;20403;-68
2021/12/05 10:49:04;;;;;;;35.28;15.25;;;;;;;;;;4992975;28;20053;-68
2021/12/05 10:51:32;;;;;;;33.63;15.25;;;;;;;;;;4996373;28;20121;-71
2021/12/05 10:53:57;;;;;;;23.80;13.95;;;4.90;99.90;;;;;;5015617;28;20045;-71
2021/12/05 10:56:31;;;;;;;30.95;15.18;;;;;;;;;;5016718;28;20108;-71
2021/12/05 10:59:08;;;;;;;27.05;14.15;;;;;;;;;;5016746;28;20124;-70
2021/12/05 11:01:45;;;;;;;26.83;14.02;;;;;;;;;;5015554;28;20056;-71
2021/12/05 11:04:14;;;;;;;29.27;13.30;;;;;;;;;;5016678;28;20058;-71
2021/12/05 11:07:06;;;;;;;31.80;14.40;;;5.00;99.90;;;;;;5016562;28;20442;-71
2021/12/05 11:09:32;;;;;;;34.10;13.70;;;;;;;;;;5016534;28;20493;-71
2021/12/05 11:12:02;;;;;;;33.47;13.95;;;;;;;;;;4996644;28;20050;-72
2021/12/05 11:14:30;;;;;;;31.15;14.18;;;;;;;;;;4993069;28;20494;-77
2021/12/05 11:16:59;;;;;;;27.48;13.77;;;;;;;;;;4995355;28;20042;-71
2021/12/05 11:19:32;;;;;;;34.17;15.48;;;4.80;99.90;;;;;;4995324;28;20057;-74
2021/12/05 11:22:00;;;;;;;37.20;15.32;;;;;;;;;;4995786;28;20400;-71
2021/12/05 11:24:35;;;;;;;32.85;14.57;;;5.40;99.90;;;;;;4989330;28;20525;-73
2021/12/05 11:27:05;;;;;;;28.73;13.95;;;;;;;;;;4991655;28;20054;-73
2021/12/05 11:29:42;;;;;;;33.90;14.38;;;;;;;;;;4993803;28;20066;-79
2021/12/05 11:32:10;;;;;;;33.53;15.30;;;5.20;99.90;;;;;;4993138;28;20474;-72
2021/12/05 11:34:36;;;;;;;33.75;14.32;;;;;;;;;;4992076;28;20133;-74
2021/12/05 11:37:02;;;;;;;27.70;13.73;;;5.10;99.90;;;;;;4994306;28;20053;-72
2021/12/05 11:39:28;;;;;;;30.08;13.90;;;;;;;;;;4994447;28;20406;-73
2021/12/05 11:41:56;;;;;;;30.35;14.48;;;;;;;;;;5015541;28;20510;-72
2021/12/05 11:44:24;;;;;;;30.50;15.18;;;5.40;99.90;;;;;;5015571;28;20160;-71
2021/12/05 11:46:50;;;;;;;33.13;15.25;;;5.30;99.90;;;;;;4998296;28;20069;-72
2021/12/05 11:49:25;;;;;;;40.58;15.73;;;5.20;99.90;;;;;;5015850;28;20100;-72
2021/12/05 11:51:52;;;;;;;34.50;13.65;;;;;;;;;;5014313;28;20557;-73
2021/12/05 11:54:20;;;;;;;29.35;14.25;;;5.20;99.90;;;;;;5014188;28;20513;-72
2021/12/05 11:56:59;;;;;;;33.45;15.02;;;5.30;99.90;;;;;;4998310;28;20050;-74
2021/12/05 11:59:25;;;;;;;35.80;13.63;;;;;;;;;;5015369;28;20100;-72
2021/12/05 12:01:57;;;;;;;25.98;13.25;;;5.40;99.90;;;;;;5013285;28;20046;-71
2021/12/05 12:04:25;;;;;;;32.85;14.45;;;;;;;;;;5014512;28;20151;-72
2021/12/05 12:07:09;;;;;;;33.10;14.98;;;;;;;;;;5014458;28;20046;-74
2021/12/05 12:09:36;;;;;;;33.08;16.00;;;;;;;;;;4998067;28;20050;-72
2021/12/05 12:12:02;;;;;;;;;;;5.60;99.90;;;;;;5015553;28;20054;-72
2021/12/05 12:14:28;;;;;;;33.67;14.02;;;5.30;99.90;;;;;;5015290;28;20266;-72
2021/12/05 12:16:54;;;;;;;26.35;13.70;;;5.80;99.90;;;;;;5014272;28;20093;-72
2021/12/05 12:19:22;;;;;;;28.42;14.23;;;;;;;;;;5014265;28;20449;-72
2021/12/05 12:21:52;;;;;;;29.27;13.13;;;5.60;99.90;;;;;;5014262;28;20085;-72
2021/12/05 12:24:18;;;;;;;29.25;13.50;;;;;;;;;;5013955;28;20092;-72
2021/12/05 12:26:45;;;;;;;29.90;14.63;;;;;;;;;;4997092;28;20092;-73
2021/12/05 12:29:12;;;;;;;28.02;12.88;;;5.70;99.90;;;;;;5013860;28;20418;-75
2021/12/05 12:31:42;;;;;;;35.97;13.48;;;5.50;99.90;;;;;;5015034;28;20042;-73
2021/12/05 12:34:13;;;;;;;30.65;13.98;;;;;;;;;;5014822;28;20085;-73
2021/12/05 12:36:39;;;;;;;26.80;13.73;;;;;;;;;;5013893;28;20128;-72
2021/12/05 12:39:24;;;;;;;30.35;13.45;;;5.40;99.90;;;;;;5013759;28;20132;-72
2021/12/05 12:42:02;;;;;;;28.83;13.30;;;;;;;;;;5013502;28;20053;-72
2021/12/05 12:44:28;;;;;;;31.48;13.52;;;5.50;99.90;;;;;;5014849;28;20046;-73
2021/12/05 12:46:58;;;;;;;26.23;13.32;;;;;;;;;;5014716;28;20052;-72
2021/12/05 12:49:24;;;;;;;32.50;13.65;;;;;;;;;;5014690;28;20050;-72
2021/12/05 12:51:57;;;;;;;29.00;13.65;;;5.40;99.90;;;;;;5013536;28;20095;-73
2021/12/05 12:54:26;;;;;;;32.15;14.30;;;;;;;;;;5013466;28;20124;-72
2021/12/05 12:57:19;;;;;;;40.40;14.60;;;5.60;99.90;;;;;;5013248;28;20140;-74
2021/12/05 12:59:47;;;;;;;30.95;14.30;;;;;;;;;;5013518;28;20089;-73
2021/12/05 13:10:34;;;;;;;46.33;20.27;;;5.30;99.90;;;;;;5012907;28;20096;-73
2021/12/05 13:13:05;;;;;;;38.70;19.13;;;;;;;;;;5012788;28;20556;-72
2021/12/05 13:15:34;;;;;;;42.53;19.50;;;5.50;99.90;;;;;;5013000;28;20096;-72
2021/12/05 13:18:03;;;;;;;40.88;17.90;;;;;;;;;;5013106;28;20143;-74
2021/12/05 13:20:47;;;;;;;37.80;18.05;;;;;;;;;;4996738;28;20402;-72
2021/12/05 13:23:28;;;;;;;34.47;17.38;;;;;;;;;;5012991;28;20061;-73
2021/12/05 13:26:19;;;;;;;29.45;15.70;;;5.50;99.90;;;;;;5013824;28;20092;-73
2021/12/05 13:28:54;;;;;;;35.10;16.05;;;5.60;99.90;;;;;;5014069;28;20482;-72
2021/12/05 13:31:28;;;;;;;32.05;14.95;;;5.40;99.90;;;;;;5012987;28;20064;-73
2021/12/05 13:34:16;;;;;;;34.20;16.13;;;5.10;99.90;;;;;;5012725;28;20081;-73
2021/12/05 13:36:42;;;;;;;;;;;;;;;;;;5013992;28;20684;-72
2021/12/05 13:39:47;;;;;;;34.70;14.05;;;5.00;99.90;;;;;;5012524;28;20024;-73
2021/12/05 13:42:16;;;;;;;31.48;14.07;;;5.20;99.90;;;;;;4996057;28;20117;-73
2021/12/05 13:45:00;;;;;;;31.67;15.20;;;5.30;99.90;;;;;;5012392;28;20241;-73
2021/12/05 13:47:33;;;;;;;31.52;15.00;;;5.30;99.90;;;;;;5013662;28;20061;-72
2021/12/05 13:50:18;;;;;;;29.17;14.45;;;5.60;99.90;;;;;;5012588;28;20077;-72
2021/12/05 13:52:55;;;;;;;29.90;14.70;;;;;;;;;;5013510;28;20084;-72
2021/12/05 13:55:41;;;;;;;33.35;16.02;;;;;;;;;;5013229;28;20049;-72
2021/12/05 13:58:16;;;;;;;32.45;15.07;;;;;;;;;;5012496;28;20049;-72
2021/12/05 14:01:17;;;;;;;32.83;14.63;;;5.30;99.90;;;;;;5013402;28;20084;-74
2021/12/05 14:03:55;;;;;;;40.22;15.90;;;5.30;99.90;;;;;;5008025;28;20141;-74
2021/12/05 14:06:33;;;;;;;38.78;15.20;;;;;;;;;;5012424;28;20096;-73
2021/12/05 14:09:22;;;;;;;33.33;15.38;;;5.10;99.90;;;;;;5013022;28;20096;-73
2021/12/05 14:11:51;;;;;;;31.45;15.35;;;;;;;;;;5013054;28;20494;-73
2021/12/05 14:14:20;;;;;;;35.60;15.65;;;5.40;99.90;;;;;;5013186;28;20173;-73
2021/12/05 14:16:48;;;;;;;36.72;17.17;;;;;;;;;;5013219;28;20046;-72
2021/12/05 14:19:19;;;;;;;36.30;15.95;;;4.70;99.90;;;;;;5013145;28;20054;-73
2021/12/05 14:21:48;;;;;;;37.80;15.77;;;4.80;99.90;;;;;;5012195;28;20454;-72
2021/12/05 14:24:14;;;;;;;35.47;16.23;;;5.30;99.90;;;;;;5012697;28;20076;-72
2021/12/05 14:26:41;;;;;;;37.67;16.40;;;;;;;;;;5011025;28;20380;-73
2021/12/05 14:29:12;;;;;;;36.33;16.23;;;5.00;99.90;;;;;;5012063;28;20054;-72
2021/12/05 14:31:42;;;;;;;39.40;16.60;;;5.00;99.90;;;;;;5013121;28;20053;-73
2021/12/05 14:34:11;;;;;;;39.83;16.88;;;;;;;;;;5012715;28;20129;-73
2021/12/05 14:36:50;;;;;;;36.63;15.80;;;5.30;99.90;;;;;;5012637;28;20052;-72
2021/12/05 14:39:17;;;;;;;38.33;16.98;;;;;;;;;;5011985;28;20045;-73
2021/12/05 14:41:45;;;;;;;41.95;17.63;;;;;;;;;;4975643;28;20089;-76
2021/12/05 14:44:12;;;;;;;38.50;17.83;;;;;;;;;;4991478;28;20062;-72
2021/12/05 14:46:53;;;;;;;47.08;18.40;;;4.90;99.90;;;;;;4993269;28;20096;-73
2021/12/05 14:49:23;;;;;;;41.33;19.08;;;5.00;99.90;;;;;;4992310;28;20062;-72
2021/12/05 14:51:49;;;;;;;39.60;19.25;;;;;;;;;;4992002;28;20112;-74
2021/12/05 14:54:21;;;;;;;49.55;19.65;;;4.60;99.90;;;;;;4993102;28;20435;-74
2021/12/05 14:56:48;;;;;;;47.47;20.90;;;;;;;;;;4993137;28;20129;-72
2021/12/05 14:59:15;;;;;;;42.17;19.38;;;4.80;99.90;;;;;;4992139;28;20065;-73
2021/12/05 15:01:46;;;;;;;43.50;19.05;;;4.90;99.90;;;;;;4992907;28;20486;-72
2021/12/05 15:04:13;;;;;;;43.58;20.13;;;;;;;;;;4992134;28;20054;-73
2021/12/05 15:06:44;;;;;;;42.58;18.75;;;5.20;99.90;;;;;;4992822;28;20078;-73
2021/12/05 15:09:22;;;;;;;42.03;20.40;;;;;;;;;;4993114;28;20097;-72
2021/12/05 15:12:20;;;;;;;45.72;18.83;;;4.70;99.90;;;;;;4991774;28;20051;-74
2021/12/05 15:14:48;;;;;;;43.83;18.27;;;;;;;;;;4983283;28;20058;-72
2021/12/05 15:17:19;;;;;;;40.90;18.55;;;;;;;;;;4993029;28;20185;-72
2021/12/05 15:19:47;;;;;;;44.88;19.35;;;;;;;;;;4993040;28;20050;-73
2021/12/05 15:22:14;;;;;;;38.90;19.42;;;;;;;;;;4992691;28;20050;-72
2021/12/05 15:24:41;;;;;;;41.45;19.08;;;;;;;;;;4993074;28;20125;-73
2021/12/05 15:27:12;;;;;;;40.38;19.58;;;;;;;;;;4992858;28;20058;-74
2021/12/05 15:29:38;;;;;;;47.10;20.35;;;;;;;;;;4993029;28;20057;-72
2021/12/05 15:32:05;;;;;;;41.80;20.25;;;;;;;;;;4991974;28;20046;-73
2021/12/05 15:34:32;;;;;;;;;;;5.00;99.90;;;;;;4992151;28;20053;-74
2021/12/05 15:36:58;;;;;;;;;;;;;;;;;;4994819;28;19921;-74
2021/12/05 15:39:27;;;;;;;42.63;18.67;;;4.80;99.90;;;;;;4979208;28;20350;-74
2021/12/05 15:41:54;;;;;;;40.40;19.23;;;;;;;;;;4996329;28;20096;-72
2021/12/05 15:44:32;;;;;;;38.83;18.98;;;;;;;;;;4996316;28;20442;-72
2021/12/05 15:47:02;;;;;;;46.17;19.85;;;;;;;;;;4997641;28;20054;-73
2021/12/05 15:49:40;;;;;;;42.13;19.40;;;;;;;;;;4997566;28;20049;-73
2021/12/05 15:52:06;;;;;;;38.78;19.02;;;;;;;;;;4996625;28;20068;-72
2021/12/05 15:54:32;;;;;;;45.50;18.77;;;4.80;99.90;;;;;;4996811;28;20046;-72
2021/12/05 15:57:07;;;;;;;46.63;19.17;;;;;;;;;;4996127;28;20391;-72
2021/12/05 15:59:38;;;;;;;42.85;17.85;;;;;;;;;;4995671;28;20064;-73
2021/12/05 16:02:07;;;;;;;37.35;17.65;;;;;;;;;;4995109;28;20054;-73
2021/12/05 16:04:33;;;;;;;40.35;18.00;;;;;;;;;;4994673;28;20059;-73
2021/12/05 16:07:08;;;;;;;42.58;19.38;;;;;;;;;;4995948;28;20050;-74
2021/12/05 16:09:34;;;;;;;39.00;19.15;;;;;;;;;;4994805;28;20152;-78
2021/12/05 16:12:16;;;;;;;38.60;18.70;;;4.50;99.90;;;;;;4995906;28;20399;-73
2021/12/05 16:14:45;;;;;;;43.15;18.80;;;;;;;;;;4996418;28;20084;-74
2021/12/05 16:17:26;;;;;;;44.38;20.17;;;4.80;99.90;;;;;;4996074;28;20483;-74
2021/12/05 16:20:10;;;;;;;42.90;20.15;;;;;;;;;;4997089;28;20495;-76
2021/12/05 16:22:55;;;;;;;43.97;21.88;;;4.00;99.90;;;;;;4996017;28;20070;-72
2021/12/05 16:25:21;;;;;;;44.00;21.55;;;;;;;;;;4995100;28;20137;-73
2021/12/05 16:27:48;;;;;;;44.58;21.27;;;;;;;;;;4994175;28;20117;-73
2021/12/05 16:30:25;;;;;;;45.72;21.92;;;;;;;;;;4994531;28;20054;-73
2021/12/05 16:32:51;;;;;;;47.33;22.55;;;;;;;;;;4995230;28;20085;-73
2021/12/05 16:35:43;;;;;;;40.55;21.02;;;;;;;;;;4994210;28;20052;-73
2021/12/05 16:38:24;;;;;;;36.28;19.08;;;;;;;;;;4992545;28;20379;-74
2021/12/05 16:40:52;;;;;;;40.33;19.15;;;;;;;;;;4978185;28;20128;-75
2021/12/05 16:43:18;;;;;;;37.22;19.63;;;;;;;;;;4995367;28;20117;-73
2021/12/05 16:45:44;;;;;;;40.08;20.55;;;;;;;;;;4994120;28;20062;-74
2021/12/05 16:48:12;;;;;;;42.92;20.25;;;;;;;;;;4994478;28;20111;-74
2021/12/05 16:50:38;;;;;;;39.58;19.88;;;;;;;;;;4994020;28;20050;-72
2021/12/05 16:53:04;;;;;;;34.22;18.30;;;;;;;;;;4994199;28;20082;-73
2021/12/05 16:55:30;;;;;;;34.42;17.67;;;;;;;;;;4977813;28;20490;-75
2021/12/05 16:58:16;;;;;;;39.63;18.55;;;4.20;99.90;;;;;;4995504;28;20394;-73
2021/12/05 17:00:44;;;;;;;38.70;17.58;;;;;;;;;;4994128;28;20054;-73
2021/12/05 17:03:16;;;;;;;34.95;17.45;;;;;;;;;;4994703;28;20414;-76
2021/12/05 17:05:44;;;;;;;35.90;17.00;;;;;;;;;;4994971;28;20042;-74
2021/12/05 17:08:13;;;;;;;35.80;17.15;;;;;;;;;;4993447;28;20069;-73
2021/12/05 17:10:44;;;;;;;29.52;16.65;;;;;;;;;;4977506;28;20042;-73
2021/12/05 17:13:24;;;;;;;33.72;16.75;;;;;;;;;;4994442;28;20398;-73
2021/12/05 17:15:53;;;;;;;31.92;17.83;;;;;;;;;;4993737;28;20057;-72
2021/12/05 17:18:25;;;;;;;30.55;17.85;;;;;;;;;;4993202;28;20065;-73
2021/12/05 17:20:58;;;;;;;32.65;16.08;;;;;;;;;;4995577;28;20093;-74
2021/12/05 17:23:27;;;;;;;30.70;16.38;;;;;;;;;;4993287;28;20086;-72
2021/12/05 17:25:56;;;;;;;31.95;17.10;;;4.10;99.90;;;;;;4994380;28;20048;-75
2021/12/05 17:28:43;;;;;;;29.92;16.05;;;;;;;;;;4992825;28;20065;-73
2021/12/05 17:31:13;;;;;;;29.02;15.85;;;3.80;99.90;;;;;;4993031;28;20065;-72
2021/12/05 17:33:41;;;;;;;31.63;16.95;;;;;;;;;;4992935;28;20406;-72
2021/12/05 17:36:16;;;;;;;31.77;16.85;;;3.80;99.90;;;;;;4993075;28;20133;-72
2021/12/05 17:38:42;;;;;;;32.13;17.23;;;;;;;;;;4994132;28;20053;-72
2021/12/05 17:41:08;;;;;;;35.55;17.33;;;;;;;;;;4994151;28;20050;-72
2021/12/05 17:43:34;;;;;;;30.30;15.90;;;;;;;;;;4993100;28;20049;-72
2021/12/05 17:46:00;;;;;;;30.02;17.17;;;;;;;;;;4992891;28;20486;-73
2021/12/05 17:48:28;;;;;;;32.33;17.00;;;;;;;;;;4993078;28;20088;-72
2021/12/05 17:50:55;;;;;;;31.85;16.58;;;;;;;;;;4993882;28;20128;-72
2021/12/05 17:53:28;;;;;;;35.63;17.42;;;3.90;99.90;;;;;;4976749;28;20042;-73
2021/12/05 17:56:00;;;;;;;31.65;17.60;;;;;;;;;;4993974;28;20117;-72
2021/12/05 18:03:56;;;;;;;37.55;17.13;;;;;;;;;;4992779;28;20514;-73
2021/12/05 18:06:23;;;;;;;;;;;3.90;99.90;;;;;;4993216;28;20125;-72
2021/12/05 18:08:49;;;;;;;35.42;18.20;;;;;;;;;;4993730;28;19922;-72
2021/12/05 18:11:20;;;;;;;;;;;;;;;;;;4976854;28;20189;-71
2021/12/05 18:13:51;;;;;;;31.23;17.80;;;;;;;;;;4993667;28;19930;-73
2021/12/05 18:16:23;;;;;;;32.22;17.27;;;;;;;;;;4993347;28;20057;-71
2021/12/05 18:18:49;;;;;;;36.40;18.55;;;;;;;;;;4993570;28;20057;-72
2021/12/05 18:21:15;;;;;;;37.08;18.83;;;;;;;;;;4993523;28;20046;-72
2021/12/05 18:23:42;;;;;;;35.67;19.55;;;;;;;;;;4992214;28;20057;-74
2021/12/05 18:26:08;;;;;;;35.00;19.38;;;;;;;;;;4993491;28;20137;-73
2021/12/05 18:28:35;;;;;;;38.28;20.48;;;;;;;;;;4991765;28;20051;-73
2021/12/05 18:31:01;;;;;;;37.75;20.02;;;;;;;;;;4993430;28;20054;-73
2021/12/05 18:33:29;;;;;;;37.08;19.60;;;3.80;99.90;;;;;;4991834;28;20553;-72
2021/12/05 18:35:56;;;;;;;38.97;21.23;;;;;;;;;;4993319;28;20376;-72
2021/12/05 18:38:24;;;;;;;38.50;20.05;;;;;;;;;;4993443;28;20100;-72
2021/12/05 18:40:52;;;;;;;42.60;21.67;;;;;;;;;;4992362;28;20133;-72
2021/12/05 18:43:22;;;;;;;43.20;22.35;;;;;;;;;;4993059;28;20050;-71
2021/12/05 18:45:48;;;;;;;40.45;20.25;;;;;;;;;;4992299;28;20069;-72
2021/12/05 18:48:15;;;;;;;37.97;19.88;;;;;;;;;;4993285;28;20125;-72
2021/12/05 18:50:42;;;;;;;38.00;19.85;;;3.50;99.90;;;;;;4992132;28;20054;-73
2021/12/05 18:53:10;;;;;;;35.58;19.48;;;;;;;;;;4993302;28;20046;-72
2021/12/05 18:55:36;;;;;;;35.25;18.38;;;;;;;;;;4991640;28;20046;-73
2021/12/05 18:58:08;;;;;;;35.35;18.70;;;3.60;99.90;;;;;;4991890;28;20532;-72
2021/12/05 19:04:17;;;;;;;31.05;18.63;;;;;;;;;;4993222;28;20050;-72
2021/12/05 19:06:11;;;;;;;32.30;18.55;;;;;;;;;;4992287;28;20108;-76
2021/12/05 19:09:03;;;;;;;32.38;18.55;;;;;;;;;;4991657;28;20487;-72
2021/12/05 19:14:08;;;;;;;31.77;18.40;;;;;;;;;;4995555;28;20050;-74
2021/12/05 19:16:34;;;;;;;;;;;3.40;99.90;;;;;;4996056;28;20129;-73
2021/12/05 19:19:02;;;;;;;32.55;19.35;;;;;;;;;;4995801;28;20365;-72
2021/12/05 19:21:28;;;;;;;29.58;16.48;;;;;;;;;;4995755;28;20427;-74
2021/12/05 19:23:55;;;;;;;27.77;16.63;;;;;;;;;;4995696;28;20050;-72
2021/12/05 19:26:22;;;;;;;24.67;15.48;;;;;;;;;;4989286;28;21588;-82
2021/12/05 19:28:48;;;;;;;25.33;15.70;;;;;;;;;;5024042;28;20104;-73
2021/12/05 19:31:15;;;;;;;26.58;16.80;;;;;;;;;;4994525;28;20046;-72
2021/12/05 19:33:41;;;;;;;;;;;;;;;;;;4995302;28;20100;-76
2021/12/05 19:36:13;;;;;;;24.75;15.13;;;;;;;;;;4993549;28;20335;-75
2021/12/05 19:38:39;;;;;;;22.38;14.63;;;;;;;;;;4995028;28;20085;-73
2021/12/05 19:41:05;;;;;;;24.00;15.27;;;;;;;;;;4992823;28;20057;-84